Mahon, Spain
Current Conditions -  °F | °C
As of 2:30 PM on Saturday 20 Dec 2014 (Local Time) from LEMH Reporting Station
Few Clouds Few Clouds  
Wind Chill: 61°   Ceiling: Unl
Heat Index: 61°   Visibility: 6mi
Dew Point: 52°   Wind: 12mph
Humidity: 72%   Direction: 280°W
Pressure: 30.39"   Gusts: NA
Location:  39.89°N, 4.26°E
Report Text: LEMH 201330Z 28010KT 9999 FEW017 16/11 Q1029
Loading
Personal Weather Stations






























Interactive Weather Map New forecast layout! Learn more

10-Day Weather Forecast

Advertisements
Track Severe Weather on mobile